sensor_id;sensor_type;location;lat;lon;timestamp;P1;durP1;ratioP1;P2;durP2;ratioP2
35128;SDS011;21301;43.626;10.580;2023-07-29T00:01:02;4.75;;;2.70;;
35128;SDS011;21301;43.626;10.580;2023-07-29T00:03:29;10.57;;;3.30;;
35128;SDS011;21301;43.626;10.580;2023-07-29T00:05:58;8.38;;;3.40;;
35128;SDS011;21301;43.626;10.580;2023-07-29T00:08:25;7.18;;;3.05;;
35128;SDS011;21301;43.626;10.580;2023-07-29T00:10:51;10.07;;;4.00;;
35128;SDS011;21301;43.626;10.580;2023-07-29T00:13:17;7.20;;;3.67;;
35128;SDS011;21301;43.626;10.580;2023-07-29T00:15:44;9.23;;;3.42;;
35128;SDS011;21301;43.626;10.580;2023-07-29T00:18:10;7.38;;;3.50;;
35128;SDS011;21301;43.626;10.580;2023-07-29T00:20:36;7.60;;;3.55;;
35128;SDS011;21301;43.626;10.580;2023-07-29T00:23:02;9.43;;;4.05;;
35128;SDS011;21301;43.626;10.580;2023-07-29T00:25:28;8.30;;;3.50;;
35128;SDS011;21301;43.626;10.580;2023-07-29T00:27:55;5.82;;;3.08;;
35128;SDS011;21301;43.626;10.580;2023-07-29T00:30:21;8.48;;;3.42;;
35128;SDS011;21301;43.626;10.580;2023-07-29T00:32:48;5.35;;;3.33;;
35128;SDS011;21301;43.626;10.580;2023-07-29T00:35:14;6.53;;;3.45;;
35128;SDS011;21301;43.626;10.580;2023-07-29T00:37:39;14.15;;;5.57;;
35128;SDS011;21301;43.626;10.580;2023-07-29T00:40:15;9.55;;;4.03;;
35128;SDS011;21301;43.626;10.580;2023-07-29T00:42:46;5.70;;;3.30;;
35128;SDS011;21301;43.626;10.580;2023-07-29T00:45:13;7.35;;;3.80;;
35128;SDS011;21301;43.626;10.580;2023-07-29T00:47:39;10.13;;;3.63;;
35128;SDS011;21301;43.626;10.580;2023-07-29T00:50:06;7.20;;;3.22;;
35128;SDS011;21301;43.626;10.580;2023-07-29T00:52:33;5.70;;;3.35;;
35128;SDS011;21301;43.626;10.580;2023-07-29T00:54:59;7.68;;;3.45;;
35128;SDS011;21301;43.626;10.580;2023-07-29T00:57:25;8.70;;;3.38;;
35128;SDS011;21301;43.626;10.580;2023-07-29T00:59:54;8.93;;;3.42;;
35128;SDS011;21301;43.626;10.580;2023-07-29T01:02:21;8.25;;;2.88;;
35128;SDS011;21301;43.626;10.580;2023-07-29T01:04:56;6.97;;;3.63;;
35128;SDS011;21301;43.626;10.580;2023-07-29T01:09:57;6.60;;;2.83;;
35128;SDS011;21301;43.626;10.580;2023-07-29T01:18:15;5.88;;;3.72;;
35128;SDS011;21301;43.626;10.580;2023-07-29T01:20:49;6.60;;;3.00;;
35128;SDS011;21301;43.626;10.580;2023-07-29T01:23:23;11.57;;;3.58;;
35128;SDS011;21301;43.626;10.580;2023-07-29T01:25:51;7.07;;;3.15;;
35128;SDS011;21301;43.626;10.580;2023-07-29T01:28:17;8.80;;;3.97;;
35128;SDS011;21301;43.626;10.580;2023-07-29T01:30:47;5.90;;;3.13;;
35128;SDS011;21301;43.626;10.580;2023-07-29T01:33:20;10.23;;;3.20;;
35128;SDS011;21301;43.626;10.580;2023-07-29T01:35:58;14.18;;;3.78;;
35128;SDS011;21301;43.626;10.580;2023-07-29T01:38:29;9.88;;;3.40;;
35128;SDS011;21301;43.626;10.580;2023-07-29T01:41:03;7.15;;;3.58;;
35128;SDS011;21301;43.626;10.580;2023-07-29T01:43:33;9.70;;;4.03;;
35128;SDS011;21301;43.626;10.580;2023-07-29T01:46:00;7.15;;;3.70;;
35128;SDS011;21301;43.626;10.580;2023-07-29T01:48:26;6.88;;;4.22;;
35128;SDS011;21301;43.626;10.580;2023-07-29T01:50:55;6.45;;;3.67;;
35128;SDS011;21301;43.626;10.580;2023-07-29T01:53:24;6.32;;;3.70;;
35128;SDS011;21301;43.626;10.580;2023-07-29T01:55:51;10.80;;;4.68;;
35128;SDS011;21301;43.626;10.580;2023-07-29T01:58:16;7.53;;;4.20;;
35128;SDS011;21301;43.626;10.580;2023-07-29T02:00:46;10.45;;;3.55;;
35128;SDS011;21301;43.626;10.580;2023-07-29T02:03:11;7.80;;;3.65;;
35128;SDS011;21301;43.626;10.580;2023-07-29T02:05:38;10.88;;;3.88;;
35128;SDS011;21301;43.626;10.580;2023-07-29T02:08:04;5.80;;;3.38;;
35128;SDS011;21301;43.626;10.580;2023-07-29T02:10:29;8.60;;;3.70;;
35128;SDS011;21301;43.626;10.580;2023-07-29T02:12:55;8.60;;;3.90;;
35128;SDS011;21301;43.626;10.580;2023-07-29T02:15:21;6.57;;;3.72;;
35128;SDS011;21301;43.626;10.580;2023-07-29T02:17:47;6.03;;;3.65;;
35128;SDS011;21301;43.626;10.580;2023-07-29T02:20:15;16.52;;;3.75;;
35128;SDS011;21301;43.626;10.580;2023-07-29T02:22:41;10.15;;;3.67;;
35128;SDS011;21301;43.626;10.580;2023-07-29T02:25:07;6.00;;;3.05;;
35128;SDS011;21301;43.626;10.580;2023-07-29T02:27:33;7.47;;;3.78;;
35128;SDS011;21301;43.626;10.580;2023-07-29T02:29:59;6.45;;;3.13;;
35128;SDS011;21301;43.626;10.580;2023-07-29T02:32:25;8.10;;;3.40;;
35128;SDS011;21301;43.626;10.580;2023-07-29T02:34:51;8.77;;;3.85;;
35128;SDS011;21301;43.626;10.580;2023-07-29T02:37:17;10.50;;;4.65;;
35128;SDS011;21301;43.626;10.580;2023-07-29T02:39:43;9.32;;;3.75;;
35128;SDS011;21301;43.626;10.580;2023-07-29T02:44:40;6.05;;;3.50;;
35128;SDS011;21301;43.626;10.580;2023-07-29T02:47:12;7.75;;;3.88;;
35128;SDS011;21301;43.626;10.580;2023-07-29T02:49:38;8.68;;;4.05;;
35128;SDS011;21301;43.626;10.580;2023-07-29T02:52:04;5.50;;;3.20;;
35128;SDS011;21301;43.626;10.580;2023-07-29T02:54:30;5.75;;;3.80;;
35128;SDS011;21301;43.626;10.580;2023-07-29T02:56:57;7.53;;;3.78;;
35128;SDS011;21301;43.626;10.580;2023-07-29T02:59:24;5.70;;;3.38;;
35128;SDS011;21301;43.626;10.580;2023-07-29T03:01:50;5.82;;;3.20;;
35128;SDS011;21301;43.626;10.580;2023-07-29T03:04:17;7.88;;;4.05;;
35128;SDS011;21301;43.626;10.580;2023-07-29T03:06:43;9.50;;;3.78;;
35128;SDS011;21301;43.626;10.580;2023-07-29T03:09:22;7.18;;;3.60;;
35128;SDS011;21301;43.626;10.580;2023-07-29T03:11:49;9.10;;;3.63;;
35128;SDS011;21301;43.626;10.580;2023-07-29T03:14:17;5.95;;;3.63;;
35128;SDS011;21301;43.626;10.580;2023-07-29T03:16:46;9.57;;;3.72;;
35128;SDS011;21301;43.626;10.580;2023-07-29T03:19:12;9.60;;;3.70;;
35128;SDS011;21301;43.626;10.580;2023-07-29T03:21:38;8.45;;;3.13;;
35128;SDS011;21301;43.626;10.580;2023-07-29T03:24:08;10.40;;;4.07;;
35128;SDS011;21301;43.626;10.580;2023-07-29T03:26:35;6.03;;;3.63;;
35128;SDS011;21301;43.626;10.580;2023-07-29T03:29:02;6.57;;;3.90;;
35128;SDS011;21301;43.626;10.580;2023-07-29T03:31:28;9.75;;;3.70;;
35128;SDS011;21301;43.626;10.580;2023-07-29T03:33:53;8.75;;;3.42;;
35128;SDS011;21301;43.626;10.580;2023-07-29T03:36:20;6.68;;;3.45;;
35128;SDS011;21301;43.626;10.580;2023-07-29T03:38:51;8.55;;;3.95;;
35128;SDS011;21301;43.626;10.580;2023-07-29T03:41:16;7.80;;;3.75;;
35128;SDS011;21301;43.626;10.580;2023-07-29T03:43:42;8.77;;;3.90;;
35128;SDS011;21301;43.626;10.580;2023-07-29T03:46:08;8.20;;;3.85;;
35128;SDS011;21301;43.626;10.580;2023-07-29T03:48:34;7.85;;;4.25;;
35128;SDS011;21301;43.626;10.580;2023-07-29T03:51:00;10.27;;;4.22;;
35128;SDS011;21301;43.626;10.580;2023-07-29T03:53:26;7.47;;;3.88;;
35128;SDS011;21301;43.626;10.580;2023-07-29T03:55:53;8.55;;;3.92;;
35128;SDS011;21301;43.626;10.580;2023-07-29T03:58:20;9.07;;;4.07;;
35128;SDS011;21301;43.626;10.580;2023-07-29T04:00:46;6.82;;;2.90;;
35128;SDS011;21301;43.626;10.580;2023-07-29T04:03:12;11.13;;;3.83;;
35128;SDS011;21301;43.626;10.580;2023-07-29T04:05:38;8.80;;;3.40;;
35128;SDS011;21301;43.626;10.580;2023-07-29T04:08:05;9.75;;;3.83;;
35128;SDS011;21301;43.626;10.580;2023-07-29T04:10:31;8.60;;;4.32;;
35128;SDS011;21301;43.626;10.580;2023-07-29T04:12:57;11.52;;;3.88;;
35128;SDS011;21301;43.626;10.580;2023-07-29T04:15:25;8.82;;;4.18;;
35128;SDS011;21301;43.626;10.580;2023-07-29T04:17:50;7.55;;;4.03;;
35128;SDS011;21301;43.626;10.580;2023-07-29T04:20:16;6.90;;;3.55;;
35128;SDS011;21301;43.626;10.580;2023-07-29T04:22:43;12.15;;;4.38;;
35128;SDS011;21301;43.626;10.580;2023-07-29T04:25:10;9.10;;;3.85;;
35128;SDS011;21301;43.626;10.580;2023-07-29T04:30:06;8.32;;;3.78;;
35128;SDS011;21301;43.626;10.580;2023-07-29T04:32:35;8.30;;;3.88;;
35128;SDS011;21301;43.626;10.580;2023-07-29T04:35:08;6.70;;;3.70;;
35128;SDS011;21301;43.626;10.580;2023-07-29T04:37:44;8.73;;;3.75;;
35128;SDS011;21301;43.626;10.580;2023-07-29T04:40:14;8.88;;;4.03;;
35128;SDS011;21301;43.626;10.580;2023-07-29T04:42:41;10.82;;;3.83;;
35128;SDS011;21301;43.626;10.580;2023-07-29T04:45:08;8.70;;;3.67;;
35128;SDS011;21301;43.626;10.580;2023-07-29T04:47:34;11.13;;;3.92;;
35128;SDS011;21301;43.626;10.580;2023-07-29T04:50:02;6.60;;;3.67;;
35128;SDS011;21301;43.626;10.580;2023-07-29T04:52:29;6.38;;;3.60;;
35128;SDS011;21301;43.626;10.580;2023-07-29T04:54:56;6.55;;;3.97;;
35128;SDS011;21301;43.626;10.580;2023-07-29T04:57:24;5.80;;;3.60;;
35128;SDS011;21301;43.626;10.580;2023-07-29T04:59:49;7.13;;;3.22;;
35128;SDS011;21301;43.626;10.580;2023-07-29T05:02:16;7.25;;;3.80;;
35128;SDS011;21301;43.626;10.580;2023-07-29T05:04:43;9.52;;;3.78;;
35128;SDS011;21301;43.626;10.580;2023-07-29T05:07:09;8.15;;;4.20;;
35128;SDS011;21301;43.626;10.580;2023-07-29T05:09:36;10.60;;;3.97;;
35128;SDS011;21301;43.626;10.580;2023-07-29T05:12:03;8.43;;;3.22;;
35128;SDS011;21301;43.626;10.580;2023-07-29T05:14:30;8.95;;;3.78;;
35128;SDS011;21301;43.626;10.580;2023-07-29T05:16:55;11.75;;;4.22;;
35128;SDS011;21301;43.626;10.580;2023-07-29T05:19:21;9.43;;;4.20;;
35128;SDS011;21301;43.626;10.580;2023-07-29T05:24:56;6.43;;;3.55;;
35128;SDS011;21301;43.626;10.580;2023-07-29T05:27:22;8.30;;;3.80;;
35128;SDS011;21301;43.626;10.580;2023-07-29T05:29:48;7.53;;;3.63;;
35128;SDS011;21301;43.626;10.580;2023-07-29T05:32:15;8.43;;;3.38;;
35128;SDS011;21301;43.626;10.580;2023-07-29T05:34:41;6.82;;;4.10;;
35128;SDS011;21301;43.626;10.580;2023-07-29T05:37:08;8.38;;;4.00;;
35128;SDS011;21301;43.626;10.580;2023-07-29T05:39:36;6.38;;;3.67;;
35128;SDS011;21301;43.626;10.580;2023-07-29T05:42:03;7.55;;;4.10;;
35128;SDS011;21301;43.626;10.580;2023-07-29T05:44:30;8.13;;;3.42;;
35128;SDS011;21301;43.626;10.580;2023-07-29T05:46:57;9.65;;;3.65;;
35128;SDS011;21301;43.626;10.580;2023-07-29T05:49:23;9.93;;;4.55;;
35128;SDS011;21301;43.626;10.580;2023-07-29T05:51:49;8.65;;;3.97;;
35128;SDS011;21301;43.626;10.580;2023-07-29T05:54:18;9.45;;;4.13;;
35128;SDS011;21301;43.626;10.580;2023-07-29T05:56:45;7.20;;;3.72;;
35128;SDS011;21301;43.626;10.580;2023-07-29T05:59:12;5.63;;;3.40;;
35128;SDS011;21301;43.626;10.580;2023-07-29T06:01:38;8.68;;;3.70;;
35128;SDS011;21301;43.626;10.580;2023-07-29T06:04:03;7.25;;;3.05;;
35128;SDS011;21301;43.626;10.580;2023-07-29T06:06:29;6.70;;;3.53;;
35128;SDS011;21301;43.626;10.580;2023-07-29T06:08:55;8.10;;;3.50;;
35128;SDS011;21301;43.626;10.580;2023-07-29T06:11:21;5.60;;;3.17;;
35128;SDS011;21301;43.626;10.580;2023-07-29T06:13:48;7.53;;;3.25;;
35128;SDS011;21301;43.626;10.580;2023-07-29T06:16:16;7.03;;;3.22;;
35128;SDS011;21301;43.626;10.580;2023-07-29T06:18:42;17.38;;;3.90;;
35128;SDS011;21301;43.626;10.580;2023-07-29T06:21:08;8.73;;;3.63;;
35128;SDS011;21301;43.626;10.580;2023-07-29T06:23:37;6.65;;;3.00;;
35128;SDS011;21301;43.626;10.580;2023-07-29T06:26:03;6.80;;;3.72;;
35128;SDS011;21301;43.626;10.580;2023-07-29T06:28:29;8.57;;;3.72;;
35128;SDS011;21301;43.626;10.580;2023-07-29T06:30:56;9.00;;;3.60;;
35128;SDS011;21301;43.626;10.580;2023-07-29T06:33:22;7.60;;;3.22;;
35128;SDS011;21301;43.626;10.580;2023-07-29T06:35:47;8.68;;;3.65;;
35128;SDS011;21301;43.626;10.580;2023-07-29T06:38:13;7.18;;;3.35;;
35128;SDS011;21301;43.626;10.580;2023-07-29T06:40:44;6.15;;;2.97;;
35128;SDS011;21301;43.626;10.580;2023-07-29T06:43:10;6.57;;;2.78;;
35128;SDS011;21301;43.626;10.580;2023-07-29T06:45:35;5.57;;;2.88;;
35128;SDS011;21301;43.626;10.580;2023-07-29T06:48:01;4.75;;;2.58;;
35128;SDS011;21301;43.626;10.580;2023-07-29T06:50:27;6.55;;;3.17;;
35128;SDS011;21301;43.626;10.580;2023-07-29T06:52:53;6.30;;;3.03;;
35128;SDS011;21301;43.626;10.580;2023-07-29T06:55:19;6.40;;;2.40;;
35128;SDS011;21301;43.626;10.580;2023-07-29T06:57:46;8.77;;;3.40;;
35128;SDS011;21301;43.626;10.580;2023-07-29T07:00:11;5.90;;;2.90;;
35128;SDS011;21301;43.626;10.580;2023-07-29T07:02:37;6.60;;;3.08;;
35128;SDS011;21301;43.626;10.580;2023-07-29T07:05:03;7.57;;;2.50;;
35128;SDS011;21301;43.626;10.580;2023-07-29T07:07:30;10.10;;;3.00;;
35128;SDS011;21301;43.626;10.580;2023-07-29T07:09:56;5.57;;;2.65;;
35128;SDS011;21301;43.626;10.580;2023-07-29T07:12:24;5.40;;;2.55;;
35128;SDS011;21301;43.626;10.580;2023-07-29T07:14:51;7.70;;;3.10;;
35128;SDS011;21301;43.626;10.580;2023-07-29T07:17:19;6.60;;;2.45;;
35128;SDS011;21301;43.626;10.580;2023-07-29T07:19:46;6.05;;;2.80;;
35128;SDS011;21301;43.626;10.580;2023-07-29T07:22:11;8.43;;;3.03;;
35128;SDS011;21301;43.626;10.580;2023-07-29T07:24:38;8.07;;;2.63;;
35128;SDS011;21301;43.626;10.580;2023-07-29T07:27:04;10.80;;;2.65;;
35128;SDS011;21301;43.626;10.580;2023-07-29T07:29:30;6.20;;;2.60;;
35128;SDS011;21301;43.626;10.580;2023-07-29T07:31:56;6.93;;;2.38;;
35128;SDS011;21301;43.626;10.580;2023-07-29T07:34:22;6.65;;;2.53;;
35128;SDS011;21301;43.626;10.580;2023-07-29T07:36:48;6.57;;;2.53;;
35128;SDS011;21301;43.626;10.580;2023-07-29T07:39:14;9.10;;;2.13;;
35128;SDS011;21301;43.626;10.580;2023-07-29T07:41:41;4.97;;;2.03;;
35128;SDS011;21301;43.626;10.580;2023-07-29T07:44:07;6.28;;;2.13;;
35128;SDS011;21301;43.626;10.580;2023-07-29T07:46:34;5.85;;;1.67;;
35128;SDS011;21301;43.626;10.580;2023-07-29T07:49:01;7.13;;;2.10;;
35128;SDS011;21301;43.626;10.580;2023-07-29T07:51:26;8.00;;;2.05;;
35128;SDS011;21301;43.626;10.580;2023-07-29T07:53:52;7.07;;;2.33;;
35128;SDS011;21301;43.626;10.580;2023-07-29T07:56:19;7.15;;;2.58;;
35128;SDS011;21301;43.626;10.580;2023-07-29T07:58:45;5.63;;;1.75;;
35128;SDS011;21301;43.626;10.580;2023-07-29T08:01:11;6.10;;;1.70;;
35128;SDS011;21301;43.626;10.580;2023-07-29T08:03:40;7.88;;;1.85;;
35128;SDS011;21301;43.626;10.580;2023-07-29T08:06:20;7.45;;;2.10;;
35128;SDS011;21301;43.626;10.580;2023-07-29T08:08:59;13.00;;;2.03;;
35128;SDS011;21301;43.626;10.580;2023-07-29T08:11:26;5.88;;;2.03;;
35128;SDS011;21301;43.626;10.580;2023-07-29T08:13:53;6.80;;;2.10;;
35128;SDS011;21301;43.626;10.580;2023-07-29T08:16:20;7.60;;;2.25;;
35128;SDS011;21301;43.626;10.580;2023-07-29T08:18:47;5.35;;;2.70;;
35128;SDS011;21301;43.626;10.580;2023-07-29T08:21:38;9.45;;;4.22;;
35128;SDS011;21301;43.626;10.580;2023-07-29T08:24:20;5.88;;;2.88;;
35128;SDS011;21301;43.626;10.580;2023-07-29T08:26:50;7.35;;;2.20;;
35128;SDS011;21301;43.626;10.580;2023-07-29T08:29:17;8.65;;;1.90;;
35128;SDS011;21301;43.626;10.580;2023-07-29T08:31:50;6.20;;;1.88;;
35128;SDS011;21301;43.626;10.580;2023-07-29T08:34:17;6.65;;;2.10;;
35128;SDS011;21301;43.626;10.580;2023-07-29T08:36:45;6.43;;;2.35;;
35128;SDS011;21301;43.626;10.580;2023-07-29T08:39:15;4.55;;;1.98;;
35128;SDS011;21301;43.626;10.580;2023-07-29T08:44:24;4.85;;;1.90;;
35128;SDS011;21301;43.626;10.580;2023-07-29T08:46:56;7.97;;;2.60;;
35128;SDS011;21301;43.626;10.580;2023-07-29T08:49:25;4.80;;;1.77;;
35128;SDS011;21301;43.626;10.580;2023-07-29T08:51:55;4.05;;;1.90;;
35128;SDS011;21301;43.626;10.580;2023-07-29T08:54:24;7.13;;;2.10;;
35128;SDS011;21301;43.626;10.580;2023-07-29T08:56:57;7.70;;;2.13;;
35128;SDS011;21301;43.626;10.580;2023-07-29T08:59:26;5.10;;;1.98;;
35128;SDS011;21301;43.626;10.580;2023-07-29T09:01:57;7.63;;;2.70;;
35128;SDS011;21301;43.626;10.580;2023-07-29T09:04:26;3.60;;;1.65;;
35128;SDS011;21301;43.626;10.580;2023-07-29T09:06:56;7.72;;;2.28;;
35128;SDS011;21301;43.626;10.580;2023-07-29T09:09:25;4.10;;;2.03;;
35128;SDS011;21301;43.626;10.580;2023-07-29T09:11:54;8.10;;;2.40;;
35128;SDS011;21301;43.626;10.580;2023-07-29T09:14:24;5.55;;;2.00;;
35128;SDS011;21301;43.626;10.580;2023-07-29T09:17:02;8.55;;;2.33;;
35128;SDS011;21301;43.626;10.580;2023-07-29T09:19:37;6.68;;;2.10;;
35128;SDS011;21301;43.626;10.580;2023-07-29T09:22:03;5.20;;;2.40;;
35128;SDS011;21301;43.626;10.580;2023-07-29T09:24:29;7.30;;;2.05;;
35128;SDS011;21301;43.626;10.580;2023-07-29T09:26:57;4.93;;;2.45;;
35128;SDS011;21301;43.626;10.580;2023-07-29T09:29:23;6.65;;;2.08;;
35128;SDS011;21301;43.626;10.580;2023-07-29T09:31:49;7.38;;;1.95;;
35128;SDS011;21301;43.626;10.580;2023-07-29T09:34:15;7.22;;;2.50;;
35128;SDS011;21301;43.626;10.580;2023-07-29T09:36:42;8.82;;;2.47;;
35128;SDS011;21301;43.626;10.580;2023-07-29T09:39:12;5.53;;;2.72;;
35128;SDS011;21301;43.626;10.580;2023-07-29T09:41:41;7.75;;;3.15;;
35128;SDS011;21301;43.626;10.580;2023-07-29T09:44:12;6.75;;;2.65;;
35128;SDS011;21301;43.626;10.580;2023-07-29T09:46:39;5.85;;;2.08;;
35128;SDS011;21301;43.626;10.580;2023-07-29T09:49:06;5.18;;;1.85;;
35128;SDS011;21301;43.626;10.580;2023-07-29T09:51:41;8.85;;;2.45;;
35128;SDS011;21301;43.626;10.580;2023-07-29T09:54:07;5.95;;;2.00;;
35128;SDS011;21301;43.626;10.580;2023-07-29T09:56:36;7.00;;;2.38;;
35128;SDS011;21301;43.626;10.580;2023-07-29T09:59:06;4.90;;;1.88;;
35128;SDS011;21301;43.626;10.580;2023-07-29T10:01:32;10.02;;;2.22;;
35128;SDS011;21301;43.626;10.580;2023-07-29T10:04:01;16.83;;;3.38;;
35128;SDS011;21301;43.626;10.580;2023-07-29T10:06:29;5.97;;;2.20;;
35128;SDS011;21301;43.626;10.580;2023-07-29T10:08:55;4.50;;;2.22;;
35128;SDS011;21301;43.626;10.580;2023-07-29T10:11:21;6.15;;;2.60;;
35128;SDS011;21301;43.626;10.580;2023-07-29T10:13:47;5.13;;;2.75;;
35128;SDS011;21301;43.626;10.580;2023-07-29T10:16:15;6.45;;;2.10;;
35128;SDS011;21301;43.626;10.580;2023-07-29T10:18:40;5.55;;;2.45;;
35128;SDS011;21301;43.626;10.580;2023-07-29T10:21:08;7.85;;;2.75;;
35128;SDS011;21301;43.626;10.580;2023-07-29T10:23:38;7.38;;;2.45;;
35128;SDS011;21301;43.626;10.580;2023-07-29T10:26:09;6.57;;;2.22;;
35128;SDS011;21301;43.626;10.580;2023-07-29T10:28:37;8.88;;;2.40;;
35128;SDS011;21301;43.626;10.580;2023-07-29T10:31:06;6.18;;;2.15;;
35128;SDS011;21301;43.626;10.580;2023-07-29T10:33:32;6.18;;;2.40;;
35128;SDS011;21301;43.626;10.580;2023-07-29T10:35:59;7.32;;;2.42;;
35128;SDS011;21301;43.626;10.580;2023-07-29T10:38:26;5.15;;;2.10;;
35128;SDS011;21301;43.626;10.580;2023-07-29T10:40:56;6.88;;;2.53;;
35128;SDS011;21301;43.626;10.580;2023-07-29T10:43:25;4.85;;;2.30;;
35128;SDS011;21301;43.626;10.580;2023-07-29T10:45:52;8.32;;;2.45;;
35128;SDS011;21301;43.626;10.580;2023-07-29T10:53:52;6.70;;;2.60;;
35128;SDS011;21301;43.626;10.580;2023-07-29T10:56:26;4.60;;;2.22;;
35128;SDS011;21301;43.626;10.580;2023-07-29T10:58:55;4.80;;;2.35;;
35128;SDS011;21301;43.626;10.580;2023-07-29T11:01:30;8.45;;;2.45;;
35128;SDS011;21301;43.626;10.580;2023-07-29T11:15:22;5.00;;;2.42;;
35128;SDS011;21301;43.626;10.580;2023-07-29T11:20:20;5.78;;;2.63;;
35128;SDS011;21301;43.626;10.580;2023-07-29T11:22:47;4.45;;;2.00;;
35128;SDS011;21301;43.626;10.580;2023-07-29T11:25:14;5.18;;;2.30;;
35128;SDS011;21301;43.626;10.580;2023-07-29T11:27:41;6.55;;;2.72;;
35128;SDS011;21301;43.626;10.580;2023-07-29T11:30:08;5.82;;;2.63;;
35128;SDS011;21301;43.626;10.580;2023-07-29T11:32:36;4.40;;;2.28;;
35128;SDS011;21301;43.626;10.580;2023-07-29T11:35:09;5.00;;;2.45;;
35128;SDS011;21301;43.626;10.580;2023-07-29T11:37:40;7.07;;;2.22;;
35128;SDS011;21301;43.626;10.580;2023-07-29T11:40:08;8.18;;;2.72;;
35128;SDS011;21301;43.626;10.580;2023-07-29T11:42:38;10.40;;;2.17;;
35128;SDS011;21301;43.626;10.580;2023-07-29T11:45:04;6.28;;;2.10;;
35128;SDS011;21301;43.626;10.580;2023-07-29T11:47:33;7.43;;;2.40;;
35128;SDS011;21301;43.626;10.580;2023-07-29T11:50:03;5.05;;;2.10;;
35128;SDS011;21301;43.626;10.580;2023-07-29T11:52:34;6.25;;;2.65;;
35128;SDS011;21301;43.626;10.580;2023-07-29T11:55:03;4.95;;;2.22;;
35128;SDS011;21301;43.626;10.580;2023-07-29T11:57:30;5.30;;;2.22;;
35128;SDS011;21301;43.626;10.580;2023-07-29T11:59:58;4.50;;;2.10;;
35128;SDS011;21301;43.626;10.580;2023-07-29T12:02:24;5.65;;;2.63;;
35128;SDS011;21301;43.626;10.580;2023-07-29T12:04:51;8.30;;;2.35;;
35128;SDS011;21301;43.626;10.580;2023-07-29T12:07:17;6.00;;;2.58;;
35128;SDS011;21301;43.626;10.580;2023-07-29T12:09:45;5.65;;;2.10;;
35128;SDS011;21301;43.626;10.580;2023-07-29T12:12:11;6.93;;;2.63;;
35128;SDS011;21301;43.626;10.580;2023-07-29T12:14:37;7.18;;;2.20;;
35128;SDS011;21301;43.626;10.580;2023-07-29T12:17:04;7.38;;;2.40;;
35128;SDS011;21301;43.626;10.580;2023-07-29T12:19:35;8.30;;;2.47;;
35128;SDS011;21301;43.626;10.580;2023-07-29T12:22:03;5.88;;;2.28;;
35128;SDS011;21301;43.626;10.580;2023-07-29T12:24:32;3.83;;;1.85;;
35128;SDS011;21301;43.626;10.580;2023-07-29T12:26:59;4.70;;;1.80;;
35128;SDS011;21301;43.626;10.580;2023-07-29T12:29:25;8.93;;;2.78;;
35128;SDS011;21301;43.626;10.580;2023-07-29T12:31:58;6.60;;;2.35;;
35128;SDS011;21301;43.626;10.580;2023-07-29T12:34:28;4.15;;;1.83;;
35128;SDS011;21301;43.626;10.580;2023-07-29T12:36:55;5.78;;;1.98;;
35128;SDS011;21301;43.626;10.580;2023-07-29T12:39:30;5.00;;;1.85;;
35128;SDS011;21301;43.626;10.580;2023-07-29T12:41:58;5.35;;;2.17;;
35128;SDS011;21301;43.626;10.580;2023-07-29T12:44:25;5.43;;;2.03;;
35128;SDS011;21301;43.626;10.580;2023-07-29T12:46:54;4.65;;;2.15;;
35128;SDS011;21301;43.626;10.580;2023-07-29T12:49:20;7.68;;;2.35;;
35128;SDS011;21301;43.626;10.580;2023-07-29T12:51:47;6.05;;;2.05;;
35128;SDS011;21301;43.626;10.580;2023-07-29T12:54:13;5.55;;;2.25;;
35128;SDS011;21301;43.626;10.580;2023-07-29T12:56:39;4.60;;;2.05;;
35128;SDS011;21301;43.626;10.580;2023-07-29T12:59:05;5.35;;;2.53;;
35128;SDS011;21301;43.626;10.580;2023-07-29T13:01:31;4.65;;;2.00;;
35128;SDS011;21301;43.626;10.580;2023-07-29T13:03:57;5.38;;;2.10;;
35128;SDS011;21301;43.626;10.580;2023-07-29T13:06:24;6.40;;;2.15;;
35128;SDS011;21301;43.626;10.580;2023-07-29T13:08:49;6.90;;;2.50;;
35128;SDS011;21301;43.626;10.580;2023-07-29T13:11:15;4.13;;;2.20;;
35128;SDS011;21301;43.626;10.580;2023-07-29T13:13:42;7.82;;;2.40;;
35128;SDS011;21301;43.626;10.580;2023-07-29T13:16:08;7.60;;;2.22;;
35128;SDS011;21301;43.626;10.580;2023-07-29T13:18:34;6.28;;;2.00;;
35128;SDS011;21301;43.626;10.580;2023-07-29T13:21:00;7.32;;;3.15;;
35128;SDS011;21301;43.626;10.580;2023-07-29T13:23:26;9.38;;;2.40;;
35128;SDS011;21301;43.626;10.580;2023-07-29T13:25:53;6.60;;;2.42;;
35128;SDS011;21301;43.626;10.580;2023-07-29T13:28:18;5.38;;;1.98;;
35128;SDS011;21301;43.626;10.580;2023-07-29T13:30:46;5.13;;;2.00;;
35128;SDS011;21301;43.626;10.580;2023-07-29T13:33:15;4.55;;;2.05;;
35128;SDS011;21301;43.626;10.580;2023-07-29T13:35:42;5.22;;;2.20;;
35128;SDS011;21301;43.626;10.580;2023-07-29T13:38:09;5.18;;;2.33;;
35128;SDS011;21301;43.626;10.580;2023-07-29T13:40:36;7.32;;;2.20;;
35128;SDS011;21301;43.626;10.580;2023-07-29T13:43:02;4.63;;;2.05;;
35128;SDS011;21301;43.626;10.580;2023-07-29T13:45:28;5.85;;;1.88;;
35128;SDS011;21301;43.626;10.580;2023-07-29T13:47:54;5.88;;;2.28;;
35128;SDS011;21301;43.626;10.580;2023-07-29T13:50:19;3.67;;;1.58;;
35128;SDS011;21301;43.626;10.580;2023-07-29T13:52:45;5.38;;;2.10;;
35128;SDS011;21301;43.626;10.580;2023-07-29T13:55:20;4.50;;;2.10;;
35128;SDS011;21301;43.626;10.580;2023-07-29T13:57:46;7.18;;;2.40;;
35128;SDS011;21301;43.626;10.580;2023-07-29T14:00:13;5.45;;;2.40;;
35128;SDS011;21301;43.626;10.580;2023-07-29T14:02:39;4.43;;;1.80;;
35128;SDS011;21301;43.626;10.580;2023-07-29T14:05:06;7.53;;;2.45;;
35128;SDS011;21301;43.626;10.580;2023-07-29T14:07:33;4.70;;;2.38;;
35128;SDS011;21301;43.626;10.580;2023-07-29T14:09:59;6.28;;;2.30;;
35128;SDS011;21301;43.626;10.580;2023-07-29T14:12:25;4.72;;;1.83;;
35128;SDS011;21301;43.626;10.580;2023-07-29T14:14:51;5.90;;;1.90;;
35128;SDS011;21301;43.626;10.580;2023-07-29T14:17:17;5.00;;;2.03;;
35128;SDS011;21301;43.626;10.580;2023-07-29T14:19:42;5.15;;;1.90;;
35128;SDS011;21301;43.626;10.580;2023-07-29T14:22:11;6.15;;;2.22;;
35128;SDS011;21301;43.626;10.580;2023-07-29T14:24:39;27.88;;;10.43;;
35128;SDS011;21301;43.626;10.580;2023-07-29T14:27:05;9.98;;;2.50;;
35128;SDS011;21301;43.626;10.580;2023-07-29T14:29:31;6.78;;;1.83;;
35128;SDS011;21301;43.626;10.580;2023-07-29T14:31:57;3.42;;;1.75;;
35128;SDS011;21301;43.626;10.580;2023-07-29T14:34:22;5.80;;;2.33;;
35128;SDS011;21301;43.626;10.580;2023-07-29T14:36:51;6.35;;;2.28;;
35128;SDS011;21301;43.626;10.580;2023-07-29T14:39:37;6.45;;;2.13;;
35128;SDS011;21301;43.626;10.580;2023-07-29T14:42:24;7.53;;;2.45;;
35128;SDS011;21301;43.626;10.580;2023-07-29T14:44:52;4.90;;;1.80;;
35128;SDS011;21301;43.626;10.580;2023-07-29T14:47:19;4.47;;;1.90;;
35128;SDS011;21301;43.626;10.580;2023-07-29T14:49:45;5.05;;;2.05;;
35128;SDS011;21301;43.626;10.580;2023-07-29T14:52:14;5.82;;;2.20;;
35128;SDS011;21301;43.626;10.580;2023-07-29T14:54:48;7.32;;;3.13;;
35128;SDS011;21301;43.626;10.580;2023-07-29T14:57:18;4.90;;;2.17;;
35128;SDS011;21301;43.626;10.580;2023-07-29T14:59:45;4.70;;;2.08;;
35128;SDS011;21301;43.626;10.580;2023-07-29T15:02:11;7.13;;;2.17;;
35128;SDS011;21301;43.626;10.580;2023-07-29T15:04:38;10.85;;;2.60;;
35128;SDS011;21301;43.626;10.580;2023-07-29T15:07:06;7.80;;;2.35;;
35128;SDS011;21301;43.626;10.580;2023-07-29T15:09:32;5.20;;;2.00;;
35128;SDS011;21301;43.626;10.580;2023-07-29T15:11:57;5.65;;;2.13;;
35128;SDS011;21301;43.626;10.580;2023-07-29T15:14:23;6.15;;;2.38;;